createdAt,value
2023-03-29T00:02:03.496Z,60.33
2023-03-29T00:04:34.316Z,60.43
2023-03-29T00:07:04.897Z,60.48
2023-03-29T00:09:35.436Z,60.09
2023-03-29T00:12:03.622Z,60.03
2023-03-29T00:14:32.240Z,59.93
2023-03-29T00:17:00.691Z,60.00
2023-03-29T00:19:29.190Z,59.85
2023-03-29T00:21:57.457Z,59.63
2023-03-29T00:24:25.772Z,59.48
2023-03-29T00:26:53.713Z,59.65
2023-03-29T00:29:21.878Z,59.67
2023-03-29T00:31:54.006Z,59.56
2023-03-29T00:34:23.355Z,59.58
2023-03-29T00:36:53.125Z,59.62
2023-03-29T00:39:23.459Z,59.27
2023-03-29T00:41:59.294Z,59.11
2023-03-29T00:44:57.064Z,59.06
2023-03-29T00:47:48.500Z,58.96
2023-03-29T00:50:22.628Z,59.13
2023-03-29T00:53:12.554Z,59.11
2023-03-29T00:55:45.008Z,59.06
2023-03-29T00:58:14.324Z,58.96
2023-03-29T01:00:52.373Z,59.04
2023-03-29T01:03:25.071Z,58.96
2023-03-29T01:05:57.388Z,59.10
2023-03-29T01:08:31.847Z,59.11
2023-03-29T01:11:07.262Z,59.06
2023-03-29T01:13:47.822Z,59.08
2023-03-29T01:16:20.426Z,59.26
2023-03-29T01:18:50.723Z,59.16
2023-03-29T01:21:25.340Z,59.15
2023-03-29T01:23:58.372Z,59.16
2023-03-29T01:26:32.658Z,59.18
2023-03-29T01:29:28.593Z,59.10
2023-03-29T01:32:01.106Z,59.05
2023-03-29T01:34:37.304Z,58.94
2023-03-29T01:37:13.647Z,59.00
2023-03-29T01:39:41.572Z,59.23
2023-03-29T01:42:49.986Z,59.17
2023-03-29T01:45:27.120Z,58.91
2023-03-29T01:48:08.678Z,58.88
2023-03-29T01:50:39.431Z,58.76
2023-03-29T01:53:17.702Z,58.90
2023-03-29T01:56:13.301Z,59.04
2023-03-29T01:58:46.386Z,58.93
2023-03-29T02:01:18.901Z,58.82
2023-03-29T02:03:50.062Z,58.74
2023-03-29T02:06:20.765Z,58.53
2023-03-29T02:08:49.880Z,59.09
2023-03-29T02:11:17.821Z,61.01
2023-03-29T02:13:53.796Z,61.21
2023-03-29T02:16:24.464Z,61.37
2023-03-29T02:18:53.417Z,61.46
2023-03-29T02:21:31.666Z,61.49
2023-03-29T02:24:01.131Z,61.63
2023-03-29T02:26:29.430Z,61.57
2023-03-29T02:28:57.898Z,61.65
2023-03-29T02:31:29.750Z,61.66
2023-03-29T02:34:02.756Z,61.77
2023-03-29T02:36:43.245Z,61.81
2023-03-29T02:39:21.546Z,61.63
2023-03-29T02:41:52.234Z,61.63
2023-03-29T02:44:28.207Z,61.68
2023-03-29T02:47:08.061Z,61.35
2023-03-29T02:49:35.963Z,61.35
2023-03-29T02:52:10.470Z,61.41
2023-03-29T02:54:43.141Z,61.44
2023-03-29T02:57:14.442Z,61.30
2023-03-29T02:59:44.822Z,61.30
2023-03-29T03:02:13.805Z,61.01
2023-03-29T03:04:43.321Z,60.88
2023-03-29T03:07:12.090Z,60.79
2023-03-29T03:09:40.757Z,61.12
2023-03-29T03:12:12.259Z,61.20
2023-03-29T03:14:41.787Z,61.17
2023-03-29T03:17:12.148Z,60.90
2023-03-29T03:19:41.996Z,61.08
2023-03-29T03:22:13.102Z,61.01
2023-03-29T03:24:41.174Z,61.09
2023-03-29T03:27:09.778Z,61.01
2023-03-29T03:29:38.847Z,60.97
2023-03-29T03:32:27.227Z,60.94
2023-03-29T03:34:57.431Z,60.89
2023-03-29T03:37:27.735Z,60.82
2023-03-29T03:39:56.638Z,60.76
2023-03-29T03:42:28.318Z,60.64
2023-03-29T03:44:57.527Z,60.83
2023-03-29T03:47:44.683Z,60.88
2023-03-29T03:50:40.235Z,61.06
2023-03-29T03:53:10.022Z,61.03
2023-03-29T03:56:08.946Z,61.05
2023-03-29T03:58:46.367Z,60.72
2023-03-29T04:01:19.240Z,60.66
2023-03-29T04:03:52.994Z,60.83
2023-03-29T04:06:21.420Z,60.85
2023-03-29T04:09:15.637Z,60.80
2023-03-29T04:11:52.477Z,60.78
2023-03-29T04:14:20.741Z,60.73
2023-03-29T04:17:05.826Z,60.75
2023-03-29T04:19:57.733Z,60.73
2023-03-29T04:22:32.838Z,60.62
2023-03-29T04:25:01.413Z,60.75
2023-03-29T04:27:53.213Z,60.90
2023-03-29T04:30:34.458Z,60.93
2023-03-29T04:33:03.987Z,60.78
2023-03-29T04:35:38.026Z,60.69
2023-03-29T04:38:10.255Z,60.88
2023-03-29T04:40:39.075Z,60.91
2023-03-29T04:43:15.731Z,61.12
2023-03-29T04:45:53.350Z,61.06
2023-03-29T04:48:40.024Z,61.26
2023-03-29T04:51:08.318Z,60.96
2023-03-29T04:53:36.922Z,61.29
2023-03-29T04:56:06.404Z,60.98
2023-03-29T04:58:56.915Z,61.09
2023-03-29T05:01:25.999Z,61.14
2023-03-29T05:03:59.090Z,60.98
2023-03-29T05:06:36.931Z,60.96
2023-03-29T05:09:07.236Z,61.06
2023-03-29T05:11:46.609Z,61.13
2023-03-29T05:14:17.674Z,60.88
2023-03-29T05:16:47.208Z,60.80
2023-03-29T05:19:16.917Z,60.53
2023-03-29T05:21:53.237Z,60.56
2023-03-29T05:24:23.761Z,60.59
2023-03-29T05:26:58.478Z,60.41
2023-03-29T05:29:28.564Z,60.31
2023-03-29T05:32:09.990Z,60.11
2023-03-29T05:34:39.314Z,60.17
2023-03-29T05:37:07.515Z,60.25
2023-03-29T05:39:45.331Z,60.22
2023-03-29T05:42:15.636Z,59.93
2023-03-29T05:44:54.655Z,60.11
2023-03-29T05:47:23.940Z,60.08
2023-03-29T05:49:52.757Z,59.87
2023-03-29T05:52:24.728Z,59.95
2023-03-29T05:54:53.013Z,60.31
2023-03-29T05:57:21.639Z,60.39
2023-03-29T05:59:50.023Z,60.41
2023-03-29T06:02:18.944Z,60.53
2023-03-29T06:04:52.022Z,60.72
2023-03-29T06:07:27.775Z,60.69
2023-03-29T06:10:23.730Z,60.34
2023-03-29T06:12:55.537Z,60.48
2023-03-29T06:15:25.513Z,60.90
2023-03-29T06:18:00.050Z,60.85
2023-03-29T06:20:33.034Z,60.49
2023-03-29T06:23:05.911Z,60.24
2023-03-29T06:25:39.679Z,60.11
2023-03-29T06:28:07.952Z,60.10
2023-03-29T06:30:38.885Z,60.03
2023-03-29T06:33:09.154Z,60.00
2023-03-29T06:35:48.690Z,59.80
2023-03-29T06:38:27.006Z,59.73
2023-03-29T06:41:06.093Z,59.43
2023-03-29T06:43:57.525Z,59.23
2023-03-29T06:46:32.511Z,58.92
2023-03-29T06:49:05.151Z,58.83
2023-03-29T06:51:40.320Z,58.69
2023-03-29T06:54:08.500Z,58.24
2023-03-29T06:56:42.085Z,58.13
2023-03-29T06:59:15.688Z,57.92
2023-03-29T07:01:50.257Z,57.88
2023-03-29T07:04:25.281Z,57.58
2023-03-29T07:07:22.864Z,57.66
2023-03-29T07:09:55.693Z,57.76
2023-03-29T07:12:44.792Z,57.61
2023-03-29T07:15:13.335Z,57.09
2023-03-29T07:18:09.198Z,56.62
2023-03-29T07:20:39.057Z,56.23
2023-03-29T07:23:11.839Z,56.40
2023-03-29T07:25:41.383Z,56.99
2023-03-29T07:28:11.356Z,56.03
2023-03-29T07:30:40.361Z,54.94
2023-03-29T07:33:20.804Z,54.31
2023-03-29T07:36:02.045Z,54.17
2023-03-29T07:38:45.356Z,54.10
2023-03-29T07:41:18.088Z,54.11
2023-03-29T07:43:49.693Z,54.32
2023-03-29T07:46:19.705Z,54.93
2023-03-29T07:48:50.853Z,54.46
2023-03-29T07:51:18.964Z,54.51
2023-03-29T07:53:53.261Z,54.54
2023-03-29T07:56:38.782Z,55.38
2023-03-29T07:59:16.633Z,54.70
2023-03-29T08:01:46.818Z,54.80
2023-03-29T08:04:26.058Z,54.55
2023-03-29T08:07:13.713Z,54.64
2023-03-29T08:10:00.603Z,54.59
2023-03-29T08:12:56.993Z,54.59
2023-03-29T08:15:42.309Z,54.79
2023-03-29T08:18:18.333Z,54.99
2023-03-29T08:20:47.942Z,54.63
2023-03-29T08:23:16.086Z,54.95
2023-03-29T08:25:54.666Z,54.81
2023-03-29T08:28:23.398Z,54.62
2023-03-29T08:30:52.953Z,54.84
2023-03-29T08:33:22.722Z,54.88
2023-03-29T08:35:58.445Z,54.80
2023-03-29T08:38:32.592Z,55.19
2023-03-29T08:41:01.556Z,55.13
2023-03-29T08:44:07.213Z,54.99
2023-03-29T08:47:35.848Z,55.31
2023-03-29T08:50:04.264Z,55.51
2023-03-29T08:52:43.094Z,56.01
2023-03-29T08:55:49.428Z,56.29
2023-03-29T08:58:37.092Z,56.23
2023-03-29T09:01:11.602Z,56.26
2023-03-29T09:03:53.386Z,56.69
2023-03-29T09:06:31.062Z,56.93
2023-03-29T09:09:16.459Z,57.12
2023-03-29T09:12:14.395Z,56.45
2023-03-29T09:15:01.928Z,56.53
2023-03-29T09:17:49.901Z,56.35
2023-03-29T09:20:27.877Z,56.50
2023-03-29T09:23:04.444Z,57.03
2023-03-29T09:25:59.853Z,57.53
2023-03-29T09:28:50.354Z,56.90
2023-03-29T09:31:28.518Z,56.00
2023-03-29T09:34:03.909Z,55.86
2023-03-29T09:36:54.014Z,55.96
2023-03-29T09:39:22.228Z,56.24
2023-03-29T09:42:09.169Z,55.68
2023-03-29T09:44:41.613Z,55.81
2023-03-29T09:47:27.637Z,56.00
2023-03-29T09:49:57.994Z,55.94
2023-03-29T09:52:30.193Z,55.37
2023-03-29T09:55:17.791Z,55.61
2023-03-29T09:58:15.318Z,55.69
2023-03-29T10:00:46.834Z,55.27
2023-03-29T10:03:19.265Z,55.49
2023-03-29T10:05:55.138Z,55.28
2023-03-29T10:08:29.736Z,55.43
2023-03-29T10:11:00.299Z,55.48
2023-03-29T10:13:30.961Z,55.01
2023-03-29T10:16:03.853Z,54.97
2023-03-29T10:18:41.978Z,54.93
2023-03-29T10:21:13.689Z,55.02
2023-03-29T10:23:43.883Z,55.14
2023-03-29T10:26:32.915Z,54.54
2023-03-29T10:29:05.352Z,54.28
2023-03-29T10:31:37.849Z,54.28
2023-03-29T10:34:06.529Z,53.86
2023-03-29T10:36:36.936Z,54.09
2023-03-29T10:39:06.348Z,54.13
2023-03-29T10:41:35.055Z,54.04
2023-03-29T10:44:03.596Z,53.92
2023-03-29T10:46:33.670Z,53.96
2023-03-29T10:49:06.226Z,53.96
2023-03-29T10:51:34.874Z,53.49
2023-03-29T10:54:05.506Z,53.86
2023-03-29T10:56:33.919Z,53.30
2023-03-29T10:59:22.898Z,53.42
2023-03-29T11:02:13.329Z,52.99
2023-03-29T11:04:44.459Z,53.11
2023-03-29T11:07:29.006Z,52.89
2023-03-29T11:10:35.208Z,53.22
2023-03-29T11:13:22.290Z,52.63
2023-03-29T11:15:54.865Z,53.02
2023-03-29T11:18:47.412Z,52.98
2023-03-29T11:21:28.119Z,53.03
2023-03-29T11:24:10.955Z,53.03
2023-03-29T11:26:42.852Z,52.85
2023-03-29T11:29:16.458Z,53.14
2023-03-29T11:32:05.524Z,53.27
2023-03-29T11:34:43.691Z,53.08
2023-03-29T11:37:30.150Z,52.79
2023-03-29T11:40:25.579Z,52.17
2023-03-29T11:42:54.287Z,52.36
2023-03-29T11:45:45.702Z,52.13
2023-03-29T11:48:24.434Z,52.22
2023-03-29T11:50:58.995Z,52.13
2023-03-29T11:53:33.842Z,52.17
2023-03-29T11:56:13.690Z,52.19
2023-03-29T11:58:44.658Z,52.00
2023-03-29T12:01:40.421Z,51.97
2023-03-29T12:04:16.483Z,52.17
2023-03-29T12:07:00.049Z,52.15
2023-03-29T12:09:50.181Z,52.05
2023-03-29T12:12:41.928Z,51.90
2023-03-29T12:15:15.885Z,51.95
2023-03-29T12:17:47.755Z,51.90
2023-03-29T12:20:26.966Z,51.03
2023-03-29T12:22:56.970Z,50.79
2023-03-29T12:25:48.397Z,51.03
2023-03-29T12:28:41.414Z,51.20
2023-03-29T12:31:25.692Z,51.34
2023-03-29T12:34:12.607Z,51.59
2023-03-29T12:37:11.365Z,50.98
2023-03-29T12:40:05.255Z,51.39
2023-03-29T12:43:04.032Z,51.26
2023-03-29T12:45:54.196Z,51.69
2023-03-29T12:48:27.487Z,51.42
2023-03-29T12:51:01.157Z,50.98
2023-03-29T12:53:39.673Z,51.08
2023-03-29T12:56:11.701Z,51.31
2023-03-29T12:58:56.313Z,51.17
2023-03-29T13:01:37.975Z,51.03
2023-03-29T13:04:12.189Z,51.31
2023-03-29T13:06:47.662Z,51.34
2023-03-29T13:09:22.968Z,51.34
2023-03-29T13:11:57.739Z,50.75
2023-03-29T13:14:27.940Z,50.95
2023-03-29T13:17:17.615Z,50.97
2023-03-29T13:20:13.532Z,51.00
2023-03-29T13:22:54.191Z,50.27
2023-03-29T13:25:45.141Z,50.49
2023-03-29T13:28:25.855Z,50.61
2023-03-29T13:31:38.571Z,50.25
2023-03-29T13:34:29.848Z,50.29
2023-03-29T13:37:20.922Z,50.41
2023-03-29T13:39:52.683Z,51.24
2023-03-29T13:42:39.156Z,51.36
2023-03-29T13:45:23.034Z,50.99
2023-03-29T13:48:05.561Z,50.93
2023-03-29T13:50:51.278Z,50.51
2023-03-29T13:53:39.403Z,50.60
2023-03-29T13:56:11.143Z,50.46
2023-03-29T13:58:48.300Z,50.39
2023-03-29T14:01:36.827Z,50.58
2023-03-29T14:04:07.536Z,50.48
2023-03-29T14:06:39.291Z,50.60
2023-03-29T14:09:08.935Z,50.66
2023-03-29T14:11:39.580Z,50.93
2023-03-29T14:14:08.542Z,51.13
2023-03-29T14:16:39.172Z,50.92
2023-03-29T14:19:21.731Z,51.03
2023-03-29T14:21:50.721Z,51.06
2023-03-29T14:24:26.246Z,51.12
2023-03-29T14:26:57.022Z,51.24
2023-03-29T14:29:31.424Z,51.39
2023-03-29T14:32:16.373Z,51.44
2023-03-29T14:34:48.405Z,51.46
2023-03-29T14:37:21.889Z,51.80
2023-03-29T14:39:50.274Z,51.68
2023-03-29T14:42:23.511Z,51.71
2023-03-29T14:44:51.796Z,51.89
2023-03-29T14:47:33.215Z,51.86
2023-03-29T14:50:01.846Z,51.58
2023-03-29T14:52:31.576Z,51.91
2023-03-29T14:55:02.355Z,52.03
2023-03-29T14:57:34.225Z,51.71
2023-03-29T15:00:26.176Z,51.72
2023-03-29T15:02:57.194Z,51.70
2023-03-29T15:05:31.552Z,51.65
2023-03-29T15:08:01.290Z,51.28
2023-03-29T15:10:32.287Z,50.84
2023-03-29T15:13:05.495Z,51.28
2023-03-29T15:15:38.511Z,51.44
2023-03-29T15:18:07.100Z,51.28
2023-03-29T15:20:37.708Z,51.57
2023-03-29T15:23:15.643Z,51.61
2023-03-29T15:25:55.975Z,51.69
2023-03-29T15:28:28.471Z,51.97
2023-03-29T15:31:08.180Z,51.95
2023-03-29T15:33:39.042Z,51.74
2023-03-29T15:36:08.733Z,51.50
2023-03-29T15:38:44.034Z,51.41
2023-03-29T15:41:14.225Z,51.42
2023-03-29T15:43:43.405Z,51.55
2023-03-29T15:46:12.244Z,51.52
2023-03-29T15:48:40.649Z,51.70
2023-03-29T15:51:12.574Z,51.45
2023-03-29T15:53:42.613Z,51.54
2023-03-29T15:56:15.834Z,51.58
2023-03-29T15:58:47.049Z,51.34
2023-03-29T16:01:33.729Z,51.17
2023-03-29T16:04:06.839Z,51.33
2023-03-29T16:06:38.474Z,51.39
2023-03-29T16:09:07.294Z,50.94
2023-03-29T16:11:36.821Z,51.71
2023-03-29T16:14:14.988Z,51.58
2023-03-29T16:16:43.375Z,51.57
2023-03-29T16:19:13.293Z,51.51
2023-03-29T16:21:45.030Z,51.51
2023-03-29T16:24:21.196Z,51.69
2023-03-29T16:26:49.827Z,52.07
2023-03-29T16:29:18.266Z,52.33
2023-03-29T16:31:47.224Z,52.05
2023-03-29T16:34:16.353Z,51.95
2023-03-29T16:36:44.500Z,52.11
2023-03-29T16:39:15.978Z,52.13
2023-03-29T16:41:45.360Z,52.01
2023-03-29T16:44:15.962Z,52.42
2023-03-29T16:46:44.737Z,52.24
2023-03-29T16:49:18.216Z,52.26
2023-03-29T16:51:52.428Z,52.42
2023-03-29T16:54:21.563Z,52.23
2023-03-29T16:56:50.133Z,52.49
2023-03-29T16:59:19.818Z,52.43
2023-03-29T17:01:47.869Z,52.51
2023-03-29T17:04:16.097Z,52.53
2023-03-29T17:06:45.240Z,52.71
2023-03-29T17:09:13.263Z,52.50
2023-03-29T17:11:41.464Z,52.58
2023-03-29T17:14:10.437Z,52.78
2023-03-29T17:16:38.728Z,52.82
2023-03-29T17:19:09.843Z,52.63
2023-03-29T17:21:37.953Z,52.59
2023-03-29T17:24:07.014Z,52.62
2023-03-29T17:26:38.306Z,52.73
2023-03-29T17:29:06.340Z,52.65
2023-03-29T17:31:38.843Z,52.85
2023-03-29T17:34:10.430Z,52.86
2023-03-29T17:36:38.745Z,52.74
2023-03-29T17:39:08.391Z,52.87
2023-03-29T17:41:39.216Z,52.83
2023-03-29T17:44:09.398Z,52.93
2023-03-29T17:46:38.668Z,52.94
2023-03-29T17:49:07.907Z,52.92
2023-03-29T17:51:36.391Z,52.87
2023-03-29T17:54:04.642Z,52.78
2023-03-29T17:56:36.229Z,52.74
2023-03-29T17:59:05.115Z,52.88
2023-03-29T18:01:34.513Z,52.73
2023-03-29T18:04:04.407Z,52.76
2023-03-29T18:06:32.564Z,52.70
2023-03-29T18:09:04.955Z,52.59
2023-03-29T18:11:33.742Z,52.61
2023-03-29T18:14:02.396Z,52.63
2023-03-29T18:16:37.098Z,52.67
2023-03-29T18:19:07.673Z,52.78
2023-03-29T18:21:39.400Z,52.94
2023-03-29T18:24:08.448Z,52.72
2023-03-29T18:26:37.057Z,52.76
2023-03-29T18:29:06.464Z,52.64
2023-03-29T18:31:36.095Z,52.68
2023-03-29T18:34:04.437Z,52.81
2023-03-29T18:36:35.259Z,52.59
2023-03-29T18:39:05.909Z,52.69
2023-03-29T18:41:37.467Z,52.69
2023-03-29T18:44:07.953Z,53.11
2023-03-29T18:46:36.590Z,53.61
2023-03-29T18:49:07.650Z,53.64
2023-03-29T18:51:35.919Z,53.15
2023-03-29T18:54:06.314Z,52.82
2023-03-29T18:56:35.609Z,52.81
2023-03-29T18:59:08.734Z,52.57
2023-03-29T19:01:37.481Z,52.81
2023-03-29T19:04:08.733Z,52.72
2023-03-29T19:06:38.998Z,52.48
2023-03-29T19:09:07.566Z,52.45
2023-03-29T19:11:38.551Z,52.38
2023-03-29T19:14:09.359Z,52.44
2023-03-29T19:16:40.311Z,52.37
2023-03-29T19:19:10.801Z,52.22
2023-03-29T19:21:41.471Z,52.49
2023-03-29T19:24:09.600Z,52.32
2023-03-29T19:26:37.906Z,52.29
2023-03-29T19:29:06.138Z,52.43
2023-03-29T19:31:36.004Z,52.35
2023-03-29T19:34:07.134Z,52.31
2023-03-29T19:36:37.567Z,52.39
2023-03-29T19:39:05.702Z,52.39
2023-03-29T19:41:34.233Z,52.15
2023-03-29T19:44:04.649Z,52.24
2023-03-29T19:46:33.133Z,52.46
2023-03-29T19:49:03.687Z,52.41
2023-03-29T19:51:34.983Z,52.43
2023-03-29T19:54:03.360Z,52.40
2023-03-29T19:56:33.213Z,52.55
2023-03-29T19:59:01.552Z,52.71
2023-03-29T20:01:32.421Z,52.70
2023-03-29T20:04:02.691Z,52.73
2023-03-29T20:06:30.906Z,52.72
2023-03-29T20:09:01.828Z,52.83
2023-03-29T20:11:32.879Z,52.79
2023-03-29T20:14:01.042Z,52.79
2023-03-29T20:16:36.877Z,52.87
2023-03-29T20:19:07.222Z,52.76
2023-03-29T20:21:37.361Z,52.68
2023-03-29T20:24:06.175Z,52.99
2023-03-29T20:26:34.130Z,52.85
2023-03-29T20:29:02.929Z,53.02
2023-03-29T20:31:31.658Z,53.14
2023-03-29T20:34:00.160Z,52.98
2023-03-29T20:36:30.599Z,52.86
2023-03-29T20:39:01.357Z,52.92
2023-03-29T20:41:31.656Z,52.87
2023-03-29T20:44:02.304Z,52.69
2023-03-29T20:46:33.583Z,52.63
2023-03-29T20:49:02.950Z,52.81
2023-03-29T20:51:32.248Z,52.95
2023-03-29T20:54:04.920Z,52.98
2023-03-29T20:56:42.472Z,53.01
2023-03-29T20:59:10.940Z,53.11
2023-03-29T21:01:41.103Z,53.14
2023-03-29T21:04:11.098Z,53.29
2023-03-29T21:06:39.879Z,53.36
2023-03-29T21:09:08.651Z,53.57
2023-03-29T21:11:41.312Z,53.40
2023-03-29T21:14:09.880Z,53.58
2023-03-29T21:16:41.711Z,53.64
2023-03-29T21:19:09.815Z,53.52
2023-03-29T21:21:38.132Z,53.56
2023-03-29T21:24:06.774Z,53.62
2023-03-29T21:26:34.838Z,53.64
2023-03-29T21:29:03.098Z,53.75
2023-03-29T21:31:31.525Z,53.73
2023-03-29T21:33:59.834Z,53.78
2023-03-29T21:36:27.860Z,53.91
2023-03-29T21:38:55.875Z,54.00
2023-03-29T21:41:24.557Z,54.07
2023-03-29T21:43:54.624Z,54.16
2023-03-29T21:46:26.526Z,54.22
2023-03-29T21:48:54.763Z,54.33
2023-03-29T21:51:22.642Z,54.29
2023-03-29T21:53:50.848Z,54.37
2023-03-29T21:56:19.494Z,54.29
2023-03-29T21:58:48.415Z,54.34
2023-03-29T22:01:18.988Z,54.44
2023-03-29T22:03:47.616Z,54.37
2023-03-29T22:06:21.318Z,54.49
2023-03-29T22:08:53.283Z,54.58
2023-03-29T22:11:21.439Z,54.55
2023-03-29T22:13:51.954Z,54.59
2023-03-29T22:16:20.709Z,54.81
2023-03-29T22:18:52.639Z,54.83
2023-03-29T22:21:31.297Z,54.92
2023-03-29T22:24:03.485Z,54.94
2023-03-29T22:26:33.607Z,54.88
2023-03-29T22:29:03.668Z,54.86
2023-03-29T22:31:32.651Z,54.77
2023-03-29T22:34:02.833Z,54.75
2023-03-29T22:36:31.858Z,54.71
2023-03-29T22:38:59.961Z,54.89
2023-03-29T22:41:28.383Z,54.85
2023-03-29T22:43:57.824Z,54.79
2023-03-29T22:46:26.478Z,54.88
2023-03-29T22:48:54.992Z,54.92
2023-03-29T22:51:24.027Z,54.99
2023-03-29T22:53:52.305Z,55.21
2023-03-29T22:56:22.926Z,55.18
2023-03-29T22:58:53.980Z,55.10
2023-03-29T23:01:22.363Z,55.21
2023-03-29T23:03:50.385Z,55.28
2023-03-29T23:06:18.423Z,55.29
2023-03-29T23:08:46.409Z,55.28
2023-03-29T23:11:21.747Z,55.33
2023-03-29T23:13:52.615Z,55.49
2023-03-29T23:16:21.131Z,55.52
2023-03-29T23:18:50.715Z,55.59
2023-03-29T23:21:18.676Z,55.66
2023-03-29T23:23:46.635Z,55.81
2023-03-29T23:26:14.945Z,55.82
2023-03-29T23:28:42.891Z,55.69
2023-03-29T23:31:14.086Z,55.85
2023-03-29T23:33:42.836Z,55.62
2023-03-29T23:36:13.137Z,55.68
2023-03-29T23:38:46.257Z,55.64
2023-03-29T23:41:15.028Z,55.66
2023-03-29T23:43:44.836Z,55.82
2023-03-29T23:46:15.517Z,55.84
2023-03-29T23:48:47.441Z,55.83
2023-03-29T23:51:18.940Z,55.86
2023-03-29T23:53:49.227Z,55.86
2023-03-29T23:56:21.652Z,55.97
2023-03-29T23:58:50.386Z,55.92
